Gentle Leader — C6WY9 — position and weather

sailwx.info

Track history (hours):
 
Tides and Currents Weather Stations Pressure Air Temp Water Temp Dewpoint Dewpoint Depression Visibility Wind Speed Wind Dir Waves Ship Positions

Gentle Leader

Last reported at 2014-Oct-01 17:33 UTC. Time now 2014-Oct-01 18:28 UTC.
Position N 53°32' E 009°60'.

Length 200 m; draft 8.4 m.

Type: Cargo ship. MMSI: 311003300.

Date/timePositionNaut miles runAvg speedWind from/ knotsBaromVisibWave heightAir tempDewpointWater temp
2014-Oct-01 17:33N 53°32' E 009°60'0 0.0
2014-Oct-01 16:27N 53°32' E 009°60'0 0.0
2014-Oct-01 15:33N 53°32' E 009°60'0 0.0
2014-Oct-01 14:33N 53°32' E 009°60'0 0.0
2014-Oct-01 13:33N 53°32' E 009°60'0 0.0
2014-Oct-01 12:33N 53°32' E 009°60'0 0.0
2014-Oct-01 11:33N 53°32' E 009°60'0 0.0
2014-Oct-01 10:33N 53°32' E 009°60'0 0.0
2014-Oct-01 09:33N 53°32' E 009°60'0 0.0
2014-Oct-01 08:33N 53°32' E 009°60'0 0.0
2014-Oct-01 07:33N 53°32' E 009°60'0 0.0
2014-Oct-01 06:33N 53°32' E 009°60'0 0.4
2014-Oct-01 05:34N 53°32' E 009°59'7 7.0
2014-Oct-01 04:33N 53°33' E 009°48'1211.7
2014-Oct-01 03:33N 53°39' E 009°31'1515.3
2014-Oct-01 02:33N 53°52' E 009°16'1312.9
2014-Oct-01 01:34N 53°51' E 008°55'1515.0
2014-Oct-01 00:34N 53°58' E 008°33'1313.3
2014-Sep-30 23:33N 53°59' E 008°10'7 7.0
2014-Sep-30 22:33N 53°60' E 007°58'6 6.0
2014-Sep-30 21:33N 53°60' E 007°48'4 3.8
2014-Sep-30 20:33N 53°57' E 007°44'4 4.5
2014-Sep-30 19:33N 53°53' E 007°48'1111.2
2014-Sep-30 18:34N 53°50' E 008°06'1616.0
2014-Sep-30 17:34N 53°39' E 008°26'6 6.2
2014-Sep-30 16:33N 53°34' E 008°33'0 0.5
2014-Sep-30 15:31N 53°34' E 008°34'0 0.0
2014-Sep-30 14:31N 53°34' E 008°34'0 0.0
2014-Sep-30 13:31N 53°34' E 008°34'0 0.0
2014-Sep-30 12:31N 53°34' E 008°34'0 0.0
2014-Sep-30 11:31N 53°34' E 008°34'0 0.0
2014-Sep-30 10:31N 53°34' E 008°34'0 0.0
2014-Sep-30 09:31N 53°34' E 008°34'0 0.0
2014-Sep-30 08:31N 53°34' E 008°34'0 0.0
2014-Sep-30 07:31N 53°34' E 008°34'0 0.0
2014-Sep-30 06:31N 53°34' E 008°34'0 0.0
2014-Sep-30 05:31N 53°34' E 008°34'0 0.0
2014-Sep-30 04:31N 53°34' E 008°34'0 0.0
2014-Sep-30 03:31N 53°34' E 008°34'0 0.0
2014-Sep-30 02:31N 53°34' E 008°34'0 0.0
2014-Sep-30 01:31N 53°34' E 008°34'0 0.0
2014-Sep-30 00:31N 53°34' E 008°34'0 0.0
2014-Sep-29 23:31N 53°34' E 008°34'0 0.0
2014-Sep-29 22:31N 53°34' E 008°34'0 0.0
2014-Sep-29 21:31N 53°34' E 008°34'0 0.0
2014-Sep-29 20:31N 53°34' E 008°34'0 0.5
2014-Sep-29 19:33N 53°34' E 008°33'2 1.8
2014-Sep-29 18:33N 53°36' E 008°31'1212.4
2014-Sep-29 17:33N 53°44' E 008°15'1413.7
2014-Sep-29 16:31N 53°52' E 007°55'17 8.6
2014-Sep-29 14:33N 54°02' E 007°33'9 9.1
2014-Sep-29 13:33N 54°10' E 007°25'8 7.8
2014-Sep-29 12:33N 54°16' E 007°16'6 5.5
2014-Sep-29 11:33N 54°18' E 007°07'6 5.9
2014-Sep-29 10:33N 54°24' E 007°06'9 8.5
2014-Sep-29 09:33N 54°32' E 006°59'0 0.4
2014-Sep-29 08:33N 54°32' E 006°59'0 0.3
2014-Sep-29 07:33N 54°31' E 006°59'2 2.3
2014-Sep-29 06:33N 54°33' E 006°57'1 1.1
2014-Sep-29 05:33N 54°32' E 006°57'0 0.1
2014-Sep-29 04:33N 54°32' E 006°57'1 1.0
2014-Sep-29 03:33N 54°32' E 006°59'1 1.5
2014-Sep-29 02:33N 54°31' E 007°01'8 7.7
2014-Sep-29 01:34N 54°27' E 007°12'0 0.4
2014-Sep-29 00:33N 54°27' E 007°12'1 0.9
2014-Sep-28 23:33N 54°28' E 007°11'1 1.3
2014-Sep-28 22:33N 54°29' E 007°09'1 1.4
2014-Sep-28 21:33N 54°30' E 007°07'1 1.2
2014-Sep-28 20:33N 54°30' E 007°05'1 1.0
2014-Sep-28 19:33N 54°30' E 007°03'3 3.0
2014-Sep-28 18:33N 54°31' E 006°59'0 0.4
2014-Sep-28 17:33N 54°31' E 006°59'0 0.4
2014-Sep-28 16:33N 54°31' E 006°60'0 0.2
2014-Sep-28 15:33N 54°31' E 006°59'1 0.5
2014-Sep-28 14:33N 54°30' E 006°60'3 3.3
2014-Sep-28 13:33N 54°30' E 007°05'0 0.3
2014-Sep-28 12:33N 54°30' E 007°06'2 1.6
2014-Sep-28 11:33N 54°30' E 007°03'1 1.4
2014-Sep-28 10:33N 54°30' E 007°00'4 3.7
2014-Sep-28 09:33N 54°31' E 007°07'2 1.5
2014-Sep-28 08:33N 54°31' E 007°04'2 1.6
2014-Sep-28 07:33N 54°31' E 007°02'1 1.1
2014-Sep-28 06:33N 54°31' E 006°60'1 0.9
2014-Sep-28 05:33N 54°30' E 006°59'3 3.2
2014-Sep-28 04:33N 54°31' E 007°04'3 3.3
2014-Sep-28 03:33N 54°32' E 007°09'1 1.0
2014-Sep-28 02:33N 54°32' E 007°08'1 1.2
2014-Sep-28 01:33N 54°31' E 007°06'2 1.6
2014-Sep-28 00:33N 54°30' E 007°08'3 3.5
2014-Sep-27 23:33N 54°30' E 007°14'2 2.2
2014-Sep-27 22:33N 54°30' E 007°10'2 2.3
2014-Sep-27 21:33N 54°30' E 007°06'2 2.1
2014-Sep-27 20:33N 54°31' E 007°02'1 1.3
2014-Sep-27 19:33N 54°31' E 007°00'5 4.9
2014-Sep-27 18:33N 54°28' E 007°07'1 1.0
2014-Sep-27 17:33N 54°28' E 007°05'1 0.7
2014-Sep-27 16:33N 54°29' E 007°04'1 0.9
2014-Sep-27 15:33N 54°29' E 007°03'1 1.0
2014-Sep-27 14:33N 54°30' E 007°02'1 0.7
2014-Sep-27 13:33N 54°30' E 007°01'5 5.4
2014-Sep-27 12:33N 54°27' E 007°08'1 0.8
2014-Sep-27 11:33N 54°26' E 007°09'2 2.4
2014-Sep-27 10:33N 54°28' E 007°06'2 1.9
2014-Sep-27 09:33N 54°28' E 007°03'4 4.0
2014-Sep-27 08:32N 54°28' E 007°09'2 2.1
2014-Sep-27 07:33N 54°29' E 007°06'2 2.1
2014-Sep-27 06:33N 54°30' E 007°03'2 1.5
2014-Sep-27 05:33N 54°29' E 007°04'2 2.3
2014-Sep-27 04:33N 54°28' E 007°08'1 0.8
2014-Sep-27 03:33N 54°29' E 007°08'1 0.9
2014-Sep-27 02:33N 54°29' E 007°06'1 1.0
2014-Sep-27 01:33N 54°29' E 007°05'2 1.6
2014-Sep-27 00:33N 54°27' E 007°06'2 2.3
2014-Sep-26 23:33N 54°26' E 007°10'2 2.0
2014-Sep-26 22:33N 54°27' E 007°07'2 2.3
2014-Sep-26 21:33N 54°29' E 007°03'2 1.8
2014-Sep-26 20:33N 54°28' E 007°06'3 2.8
2014-Sep-26 19:33N 54°27' E 007°11'2 1.8
2014-Sep-26 18:33N 54°28' E 007°09'1 0.6
2014-Sep-26 17:33N 54°28' E 007°08'1 1.4
2014-Sep-26 16:33N 54°28' E 007°05'1 1.3
2014-Sep-26 15:33N 54°28' E 007°03'2 1.9
2014-Sep-26 14:33N 54°30' E 007°05'6 6.0
2014-Sep-26 13:33N 54°33' E 007°14'2 2.0
2014-Sep-26 12:33N 54°32' E 007°11'2 1.7
2014-Sep-26 11:33N 54°31' E 007°08'3 2.5
2014-Sep-26 10:33N 54°32' E 007°04'1 0.9
2014-Sep-26 09:33N 54°32' E 007°04'4 3.9
2014-Sep-26 08:33N 54°32' E 007°10'3 2.6
2014-Sep-26 07:33N 54°32' E 007°06'2 2.1
2014-Sep-26 06:33N 54°31' E 007°02'2 2.3
2014-Sep-26 05:33N 54°31' E 007°06'2 2.2
2014-Sep-26 04:33N 54°31' E 007°10'1 1.2
2014-Sep-26 03:33N 54°32' E 007°08'1 1.3
2014-Sep-26 02:33N 54°31' E 007°06'1 1.5
2014-Sep-26 01:33N 54°32' E 007°03'2 1.5
2014-Sep-26 00:33N 54°31' E 007°05'3 2.9
2014-Sep-25 23:33N 54°31' E 007°10'2 2.2
2014-Sep-25 22:33N 54°31' E 007°07'2 2.3
2014-Sep-25 21:33N 54°31' E 007°03'5 5.0
2014-Sep-25 20:33N 54°27' E 007°07'1 0.5
2014-Sep-25 19:33N 54°27' E 007°07'1 1.4
2014-Sep-25 18:33N 54°25' E 007°08'7 6.5
2014-Sep-25 17:33N 54°20' E 007°13'7 6.8
2014-Sep-25 16:33N 54°16' E 007°23'7 6.7
2014-Sep-25 15:33N 54°10' E 007°30'7 7.2
2014-Sep-25 14:33N 54°04' E 007°36'9 7.3
2014-Sep-25 13:23N 53°57' E 007°42'3 4.0
2014-Sep-25 12:32N 53°54' E 007°47'0 0.1
2014-Sep-25 11:26N 53°54' E 007°47'0 0.0
2014-Sep-25 10:32N 53°54' E 007°47'0 0.0
2014-Sep-25 09:32N 53°54' E 007°47'0 0.0
2014-Sep-25 08:29N 53°54' E 007°47'0 0.0
2014-Sep-25 07:32N 53°54' E 007°47'0 0.0
2014-Sep-25 06:26N 53°54' E 007°47'0 0.0
2014-Sep-25 05:32N 53°54' E 007°47'0 0.0
2014-Sep-25 02:23N 53°54' E 007°46'0 0.0
2014-Sep-25 01:17N 53°54' E 007°46'0 0.0
2014-Sep-25 00:17N 53°54' E 007°46'0 0.0
2014-Sep-24 22:11N 53°54' E 007°47'0 0.0
2014-Sep-24 21:29N 53°54' E 007°47'0 0.0
2014-Sep-24 05:18N 53°54' E 007°47'28 5.9
2014-Sep-24 00:32N 53°50' E 006°59'8 8.1
2014-Sep-23 23:33N 53°48' E 006°46'9 8.5
2014-Sep-23 22:32N 53°46' E 006°32'9 8.8
2014-Sep-23 21:33N 53°44' E 006°18'9 9.2
2014-Sep-23 20:33N 53°41' E 006°03'9 9.4
2014-Sep-23 19:33N 53°38' E 005°48'9 9.4
2014-Sep-23 18:33N 53°35' E 005°33'10 9.8
2014-Sep-23 17:33N 53°31' E 005°18'10 9.9
2014-Sep-23 16:33N 53°28' E 005°02'11 9.6
2014-Sep-23 15:22N 53°23' E 004°44'12 9.7
2014-Sep-23 14:09N 53°13' E 004°35'6 9.8
2014-Sep-23 13:33N 53°08' E 004°29'9 9.4
2014-Sep-23 12:33N 53°00' E 004°22'9 8.9
2014-Sep-23 11:33N 52°52' E 004°15'9 8.6
2014-Sep-23 10:33N 52°45' E 004°07'9 8.6
2014-Sep-23 09:33N 52°39' E 003°56'8 8.4
2014-Sep-23 08:33N 52°33' E 003°47'9 8.9
2014-Sep-23 07:33N 52°26' E 003°38'20 9.0
2014-Sep-23 05:18N 52°12' E 003°14'3110.2
2014-Sep-23 02:15N 51°47' E 002°44'810.6
2014-Sep-23 01:30N 51°39' E 002°43'1110.5
2014-Sep-23 00:30N 51°29' E 002°44'9 7.9
2014-Sep-22 23:24N 51°23' E 002°54'1011.9
2014-Sep-22 22:33N 51°23' E 003°10'3 3.5
2014-Sep-22 21:33N 51°20' E 003°13'2 1.3
2014-Sep-22 20:17N 51°18' E 003°14'0 0.0
2014-Sep-22 19:23N 51°18' E 003°14'0 0.0
2014-Sep-22 18:26N 51°18' E 003°14'0 0.0
2014-Sep-22 15:23N 51°18' E 003°14'0 0.0
2014-Sep-22 14:26N 51°18' E 003°14'0 0.0
2014-Sep-22 13:32N 51°18' E 003°14'0 0.0
2014-Sep-22 12:32N 51°18' E 003°14'0 0.0
2014-Sep-22 11:32N 51°18' E 003°14'0 0.0
2014-Sep-22 10:32N 51°18' E 003°14'2 1.8
2014-Sep-22 09:33N 51°20' E 003°13'0 0.0
2014-Sep-22 08:33N 51°20' E 003°13'0 0.0
2014-Sep-22 07:33N 51°20' E 003°13'0 0.0
2014-Sep-22 06:33N 51°20' E 003°13'0 0.3
2014-Sep-22 05:33N 51°20' E 003°13'7 7.1
2014-Sep-22 04:33N 51°24' E 003°03'1313.3
2014-Sep-22 03:34N 51°22' E 002°43'9 9.2
2014-Sep-22 02:33N 51°21' E 002°28'7 7.4
2014-Sep-22 01:34N 51°18' E 002°17'6 6.3
2014-Sep-22 00:33N 51°14' E 002°09'5 5.4
2014-Sep-21 23:33N 51°12' E 002°02'6 5.5
2014-Sep-21 22:34N 51°09' E 001°54'8 8.0
2014-Sep-21 21:34N 51°04' E 001°44'9 9.5
2014-Sep-21 20:33N 50°57' E 001°34'  
Track history (hours):
 
Tides and Currents Weather Stations Pressure Air Temp Water Temp Dewpoint Dewpoint Depression Visibility Wind Speed Wind Dir Waves Ship Positions

Gentle Leader

Last reported at 2014-Oct-01 17:33 UTC. Time now 2014-Oct-01 18:28 UTC.
Position N 53°32' E 009°60'.

Length 200 m; draft 8.4 m.

Type: Cargo ship. MMSI: 311003300.

Date/timePositionNaut miles runAvg speedWind from/ knotsBaromVisibWave heightAir tempDewpointWater temp
2014-Oct-01 17:33N 53°32' E 009°60'0 0.0
2014-Oct-01 16:27N 53°32' E 009°60'0 0.0
2014-Oct-01 15:33N 53°32' E 009°60'0 0.0
2014-Oct-01 14:33N 53°32' E 009°60'0 0.0
2014-Oct-01 13:33N 53°32' E 009°60'0 0.0
2014-Oct-01 12:33N 53°32' E 009°60'0 0.0
2014-Oct-01 11:33N 53°32' E 009°60'0 0.0
2014-Oct-01 10:33N 53°32' E 009°60'0 0.0
2014-Oct-01 09:33N 53°32' E 009°60'0 0.0
2014-Oct-01 08:33N 53°32' E 009°60'0 0.0
2014-Oct-01 07:33N 53°32' E 009°60'0 0.0
2014-Oct-01 06:33N 53°32' E 009°60'0 0.4
2014-Oct-01 05:34N 53°32' E 009°59'7 7.0
2014-Oct-01 04:33N 53°33' E 009°48'1211.7
2014-Oct-01 03:33N 53°39' E 009°31'1515.3
2014-Oct-01 02:33N 53°52' E 009°16'1312.9
2014-Oct-01 01:34N 53°51' E 008°55'1515.0
2014-Oct-01 00:34N 53°58' E 008°33'1313.3
2014-Sep-30 23:33N 53°59' E 008°10'7 7.0
2014-Sep-30 22:33N 53°60' E 007°58'6 6.0
2014-Sep-30 21:33N 53°60' E 007°48'4 3.8
2014-Sep-30 20:33N 53°57' E 007°44'4 4.5
2014-Sep-30 19:33N 53°53' E 007°48'1111.2
2014-Sep-30 18:34N 53°50' E 008°06'1616.0
2014-Sep-30 17:34N 53°39' E 008°26'6 6.2
2014-Sep-30 16:33N 53°34' E 008°33'0 0.5
2014-Sep-30 15:31N 53°34' E 008°34'0 0.0
2014-Sep-30 14:31N 53°34' E 008°34'0 0.0
2014-Sep-30 13:31N 53°34' E 008°34'0 0.0
2014-Sep-30 12:31N 53°34' E 008°34'0 0.0
2014-Sep-30 11:31N 53°34' E 008°34'0 0.0
2014-Sep-30 10:31N 53°34' E 008°34'0 0.0
2014-Sep-30 09:31N 53°34' E 008°34'0 0.0
2014-Sep-30 08:31N 53°34' E 008°34'0 0.0
2014-Sep-30 07:31N 53°34' E 008°34'0 0.0
2014-Sep-30 06:31N 53°34' E 008°34'0 0.0
2014-Sep-30 05:31N 53°34' E 008°34'0 0.0
2014-Sep-30 04:31N 53°34' E 008°34'0 0.0
2014-Sep-30 03:31N 53°34' E 008°34'0 0.0
2014-Sep-30 02:31N 53°34' E 008°34'0 0.0
2014-Sep-30 01:31N 53°34' E 008°34'0 0.0
2014-Sep-30 00:31N 53°34' E 008°34'0 0.0
2014-Sep-29 23:31N 53°34' E 008°34'0 0.0
2014-Sep-29 22:31N 53°34' E 008°34'0 0.0
2014-Sep-29 21:31N 53°34' E 008°34'0 0.0
2014-Sep-29 20:31N 53°34' E 008°34'0 0.5
2014-Sep-29 19:33N 53°34' E 008°33'2 1.8
2014-Sep-29 18:33N 53°36' E 008°31'1212.4
2014-Sep-29 17:33N 53°44' E 008°15'1413.7
2014-Sep-29 16:31N 53°52' E 007°55'17 8.6
2014-Sep-29 14:33N 54°02' E 007°33'9 9.1
2014-Sep-29 13:33N 54°10' E 007°25'8 7.8
2014-Sep-29 12:33N 54°16' E 007°16'6 5.5
2014-Sep-29 11:33N 54°18' E 007°07'6 5.9
2014-Sep-29 10:33N 54°24' E 007°06'9 8.5
2014-Sep-29 09:33N 54°32' E 006°59'0 0.4
2014-Sep-29 08:33N 54°32' E 006°59'0 0.3
2014-Sep-29 07:33N 54°31' E 006°59'2 2.3
2014-Sep-29 06:33N 54°33' E 006°57'1 1.1
2014-Sep-29 05:33N 54°32' E 006°57'0 0.1
2014-Sep-29 04:33N 54°32' E 006°57'1 1.0
2014-Sep-29 03:33N 54°32' E 006°59'1 1.5
2014-Sep-29 02:33N 54°31' E 007°01'8 7.7
2014-Sep-29 01:34N 54°27' E 007°12'0 0.4
2014-Sep-29 00:33N 54°27' E 007°12'1 0.9
2014-Sep-28 23:33N 54°28' E 007°11'1 1.3
2014-Sep-28 22:33N 54°29' E 007°09'1 1.4
2014-Sep-28 21:33N 54°30' E 007°07'1 1.2
2014-Sep-28 20:33N 54°30' E 007°05'1 1.0
2014-Sep-28 19:33N 54°30' E 007°03'3 3.0
2014-Sep-28 18:33N 54°31' E 006°59'0 0.4
2014-Sep-28 17:33N 54°31' E 006°59'0 0.4
2014-Sep-28 16:33N 54°31' E 006°60'0 0.2
2014-Sep-28 15:33N 54°31' E 006°59'1 0.5
2014-Sep-28 14:33N 54°30' E 006°60'3 3.3
2014-Sep-28 13:33N 54°30' E 007°05'0 0.3
2014-Sep-28 12:33N 54°30' E 007°06'2 1.6
2014-Sep-28 11:33N 54°30' E 007°03'1 1.4
2014-Sep-28 10:33N 54°30' E 007°00'4 3.7
2014-Sep-28 09:33N 54°31' E 007°07'2 1.5
2014-Sep-28 08:33N 54°31' E 007°04'2 1.6
2014-Sep-28 07:33N 54°31' E 007°02'1 1.1
2014-Sep-28 06:33N 54°31' E 006°60'1 0.9
2014-Sep-28 05:33N 54°30' E 006°59'3 3.2
2014-Sep-28 04:33N 54°31' E 007°04'3 3.3
2014-Sep-28 03:33N 54°32' E 007°09'1 1.0
2014-Sep-28 02:33N 54°32' E 007°08'1 1.2
2014-Sep-28 01:33N 54°31' E 007°06'2 1.6
2014-Sep-28 00:33N 54°30' E 007°08'3 3.5
2014-Sep-27 23:33N 54°30' E 007°14'2 2.2
2014-Sep-27 22:33N 54°30' E 007°10'2 2.3
2014-Sep-27 21:33N 54°30' E 007°06'2 2.1
2014-Sep-27 20:33N 54°31' E 007°02'1 1.3
2014-Sep-27 19:33N 54°31' E 007°00'5 4.9
2014-Sep-27 18:33N 54°28' E 007°07'1 1.0
2014-Sep-27 17:33N 54°28' E 007°05'1 0.7
2014-Sep-27 16:33N 54°29' E 007°04'1 0.9
2014-Sep-27 15:33N 54°29' E 007°03'1 1.0
2014-Sep-27 14:33N 54°30' E 007°02'1 0.7
2014-Sep-27 13:33N 54°30' E 007°01'5 5.4
2014-Sep-27 12:33N 54°27' E 007°08'1 0.8
2014-Sep-27 11:33N 54°26' E 007°09'2 2.4
2014-Sep-27 10:33N 54°28' E 007°06'2 1.9
2014-Sep-27 09:33N 54°28' E 007°03'4 4.0
2014-Sep-27 08:32N 54°28' E 007°09'2 2.1
2014-Sep-27 07:33N 54°29' E 007°06'2 2.1
2014-Sep-27 06:33N 54°30' E 007°03'2 1.5
2014-Sep-27 05:33N 54°29' E 007°04'2 2.3
2014-Sep-27 04:33N 54°28' E 007°08'1 0.8
2014-Sep-27 03:33N 54°29' E 007°08'1 0.9
2014-Sep-27 02:33N 54°29' E 007°06'1 1.0
2014-Sep-27 01:33N 54°29' E 007°05'2 1.6
2014-Sep-27 00:33N 54°27' E 007°06'2 2.3
2014-Sep-26 23:33N 54°26' E 007°10'2 2.0
2014-Sep-26 22:33N 54°27' E 007°07'2 2.3
2014-Sep-26 21:33N 54°29' E 007°03'2 1.8
2014-Sep-26 20:33N 54°28' E 007°06'3 2.8
2014-Sep-26 19:33N 54°27' E 007°11'2 1.8
2014-Sep-26 18:33N 54°28' E 007°09'1 0.6
2014-Sep-26 17:33N 54°28' E 007°08'1 1.4
2014-Sep-26 16:33N 54°28' E 007°05'1 1.3
2014-Sep-26 15:33N 54°28' E 007°03'2 1.9
2014-Sep-26 14:33N 54°30' E 007°05'6 6.0
2014-Sep-26 13:33N 54°33' E 007°14'2 2.0
2014-Sep-26 12:33N 54°32' E 007°11'2 1.7
2014-Sep-26 11:33N 54°31' E 007°08'3 2.5
2014-Sep-26 10:33N 54°32' E 007°04'1 0.9
2014-Sep-26 09:33N 54°32' E 007°04'4 3.9
2014-Sep-26 08:33N 54°32' E 007°10'3 2.6
2014-Sep-26 07:33N 54°32' E 007°06'2 2.1
2014-Sep-26 06:33N 54°31' E 007°02'2 2.3
2014-Sep-26 05:33N 54°31' E 007°06'2 2.2
2014-Sep-26 04:33N 54°31' E 007°10'1 1.2
2014-Sep-26 03:33N 54°32' E 007°08'1 1.3
2014-Sep-26 02:33N 54°31' E 007°06'1 1.5
2014-Sep-26 01:33N 54°32' E 007°03'2 1.5
2014-Sep-26 00:33N 54°31' E 007°05'3 2.9
2014-Sep-25 23:33N 54°31' E 007°10'2 2.2
2014-Sep-25 22:33N 54°31' E 007°07'2 2.3
2014-Sep-25 21:33N 54°31' E 007°03'5 5.0
2014-Sep-25 20:33N 54°27' E 007°07'1 0.5
2014-Sep-25 19:33N 54°27' E 007°07'1 1.4
2014-Sep-25 18:33N 54°25' E 007°08'7 6.5
2014-Sep-25 17:33N 54°20' E 007°13'7 6.8
2014-Sep-25 16:33N 54°16' E 007°23'7 6.7
2014-Sep-25 15:33N 54°10' E 007°30'7 7.2
2014-Sep-25 14:33N 54°04' E 007°36'9 7.3
2014-Sep-25 13:23N 53°57' E 007°42'3 4.0
2014-Sep-25 12:32N 53°54' E 007°47'0 0.1
2014-Sep-25 11:26N 53°54' E 007°47'0 0.0
2014-Sep-25 10:32N 53°54' E 007°47'0 0.0
2014-Sep-25 09:32N 53°54' E 007°47'0 0.0
2014-Sep-25 08:29N 53°54' E 007°47'0 0.0
2014-Sep-25 07:32N 53°54' E 007°47'0 0.0
2014-Sep-25 06:26N 53°54' E 007°47'0 0.0
2014-Sep-25 05:32N 53°54' E 007°47'0 0.0
2014-Sep-25 02:23N 53°54' E 007°46'0 0.0
2014-Sep-25 01:17N 53°54' E 007°46'0 0.0
2014-Sep-25 00:17N 53°54' E 007°46'0 0.0
2014-Sep-24 22:11N 53°54' E 007°47'0 0.0
2014-Sep-24 21:29N 53°54' E 007°47'0 0.0
2014-Sep-24 05:18N 53°54' E 007°47'28 5.9
2014-Sep-24 00:32N 53°50' E 006°59'8 8.1
2014-Sep-23 23:33N 53°48' E 006°46'9 8.5
2014-Sep-23 22:32N 53°46' E 006°32'9 8.8
2014-Sep-23 21:33N 53°44' E 006°18'9 9.2
2014-Sep-23 20:33N 53°41' E 006°03'9 9.4
2014-Sep-23 19:33N 53°38' E 005°48'9 9.4
2014-Sep-23 18:33N 53°35' E 005°33'10 9.8
2014-Sep-23 17:33N 53°31' E 005°18'10 9.9
2014-Sep-23 16:33N 53°28' E 005°02'11 9.6
2014-Sep-23 15:22N 53°23' E 004°44'12 9.7
2014-Sep-23 14:09N 53°13' E 004°35'6 9.8
2014-Sep-23 13:33N 53°08' E 004°29'9 9.4
2014-Sep-23 12:33N 53°00' E 004°22'9 8.9
2014-Sep-23 11:33N 52°52' E 004°15'9 8.6
2014-Sep-23 10:33N 52°45' E 004°07'9 8.6
2014-Sep-23 09:33N 52°39' E 003°56'8 8.4
2014-Sep-23 08:33N 52°33' E 003°47'9 8.9
2014-Sep-23 07:33N 52°26' E 003°38'20 9.0
2014-Sep-23 05:18N 52°12' E 003°14'3110.2
2014-Sep-23 02:15N 51°47' E 002°44'810.6
2014-Sep-23 01:30N 51°39' E 002°43'1110.5
2014-Sep-23 00:30N 51°29' E 002°44'9 7.9
2014-Sep-22 23:24N 51°23' E 002°54'1011.9
2014-Sep-22 22:33N 51°23' E 003°10'3 3.5
2014-Sep-22 21:33N 51°20' E 003°13'2 1.3
2014-Sep-22 20:17N 51°18' E 003°14'0 0.0
2014-Sep-22 19:23N 51°18' E 003°14'0 0.0
2014-Sep-22 18:26N 51°18' E 003°14'0 0.0
2014-Sep-22 15:23N 51°18' E 003°14'0 0.0
2014-Sep-22 14:26N 51°18' E 003°14'0 0.0
2014-Sep-22 13:32N 51°18' E 003°14'0 0.0
2014-Sep-22 12:32N 51°18' E 003°14'0 0.0
2014-Sep-22 11:32N 51°18' E 003°14'0 0.0
2014-Sep-22 10:32N 51°18' E 003°14'2 1.8
2014-Sep-22 09:33N 51°20' E 003°13'0 0.0
2014-Sep-22 08:33N 51°20' E 003°13'0 0.0
2014-Sep-22 07:33N 51°20' E 003°13'0 0.0
2014-Sep-22 06:33N 51°20' E 003°13'0 0.3
2014-Sep-22 05:33N 51°20' E 003°13'7 7.1
2014-Sep-22 04:33N 51°24' E 003°03'1313.3
2014-Sep-22 03:34N 51°22' E 002°43'9 9.2
2014-Sep-22 02:33N 51°21' E 002°28'7 7.4
2014-Sep-22 01:34N 51°18' E 002°17'6 6.3
2014-Sep-22 00:33N 51°14' E 002°09'5 5.4
2014-Sep-21 23:33N 51°12' E 002°02'6 5.5
2014-Sep-21 22:34N 51°09' E 001°54'8 8.0
2014-Sep-21 21:34N 51°04' E 001°44'9 9.5
2014-Sep-21 20:33N 50°57' E 001°34'  

Dump ship's entire track history